Maun, Botswana
Current Conditions -  °F | °C
As of 8:00 PM on Wednesday 28 Jan 2015 (Local Time) from FBKE Reporting Station
Thunderstorm Thunderstorm  
Wind Chill: 77°   Ceiling: Unl
Heat Index: 79°   Visibility: 6mi
Dew Point: 64°   Wind: 3mph
Humidity: 65%   Direction: 140°SE
Pressure: 29.88"   Gusts: NA
Location:  19.99°S, 23.42°E
Report Text: FBKE 281800Z 14003KT 9999 TS SCT025 FEW030CB 25/18 Q1012
Loading
Personal Weather Stations






























Interactive Weather Map New forecast layout! Learn more

10-Day Weather Forecast

Advertisements
Track Severe Weather on mobile